createdAt,value
2019-05-05T00:00:56.579Z,3.03
2019-05-05T00:01:56.560Z,2.87
2019-05-05T00:02:56.549Z,2.90
2019-05-05T00:03:56.585Z,2.90
2019-05-05T00:04:56.529Z,2.87
2019-05-05T00:05:56.531Z,2.81
2019-05-05T00:06:56.504Z,2.77
2019-05-05T00:07:56.494Z,2.79
2019-05-05T00:08:56.506Z,2.75
2019-05-05T00:09:56.480Z,2.66
2019-05-05T00:10:56.971Z,2.69
2019-05-05T00:11:56.493Z,2.64
2019-05-05T00:12:56.437Z,2.63
2019-05-05T00:13:56.429Z,2.59
2019-05-05T00:14:56.418Z,2.56
2019-05-05T00:15:56.408Z,2.48
2019-05-05T00:16:56.426Z,2.52
2019-05-05T00:17:56.385Z,2.42
2019-05-05T00:18:56.370Z,2.49
2019-05-05T00:19:56.360Z,2.38
2019-05-05T00:20:56.350Z,2.52
2019-05-05T00:21:56.372Z,2.34
2019-05-05T00:22:56.377Z,2.34
2019-05-05T00:23:56.324Z,2.34
2019-05-05T00:24:56.305Z,2.36
2019-05-05T00:25:56.327Z,2.30
2019-05-05T00:26:56.288Z,2.34
2019-05-05T00:27:56.272Z,2.30
2019-05-05T00:28:56.271Z,2.43
2019-05-05T00:29:56.251Z,2.30
2019-05-05T00:30:56.261Z,2.38
2019-05-05T00:31:56.230Z,2.30
2019-05-05T00:32:56.242Z,2.35
2019-05-05T00:33:56.203Z,2.25
2019-05-05T00:34:56.206Z,2.23
2019-05-05T00:35:56.182Z,2.23
2019-05-05T00:36:56.200Z,2.23
2019-05-05T00:37:56.163Z,2.20
2019-05-05T00:38:56.150Z,2.20
2019-05-05T00:39:56.167Z,2.17
2019-05-05T00:40:56.132Z,2.12
2019-05-05T00:41:56.134Z,2.12
2019-05-05T00:42:56.121Z,2.09
2019-05-05T00:43:56.112Z,2.18
2019-05-05T00:44:56.083Z,2.10
2019-05-05T00:45:56.075Z,2.09
2019-05-05T00:46:56.093Z,1.99
2019-05-05T00:47:56.050Z,2.02
2019-05-05T00:48:56.065Z,1.93
2019-05-05T00:49:56.390Z,1.98
2019-05-05T00:50:56.017Z,1.91
2019-05-05T00:51:56.006Z,2.02
2019-05-05T00:52:56.035Z,1.95
2019-05-05T00:53:56.008Z,1.81
2019-05-05T00:54:55.974Z,1.76
2019-05-05T00:55:55.959Z,1.76
2019-05-05T00:56:55.948Z,1.80
2019-05-05T00:57:55.941Z,1.69
2019-05-05T00:58:55.954Z,1.73
2019-05-05T00:59:55.925Z,1.68
2019-05-05T01:00:55.919Z,1.68
2019-05-05T01:01:55.894Z,1.65
2019-05-05T01:02:55.882Z,1.70
2019-05-05T01:03:55.871Z,1.60
2019-05-05T01:04:55.863Z,1.63
2019-05-05T01:05:55.882Z,1.63
2019-05-05T01:06:55.854Z,1.54
2019-05-05T01:07:55.828Z,1.62
2019-05-05T01:08:55.815Z,1.48
2019-05-05T01:09:55.809Z,1.55
2019-05-05T01:10:55.812Z,1.54
2019-05-05T01:11:55.813Z,1.59
2019-05-05T01:12:55.771Z,1.52
2019-05-05T01:13:55.761Z,1.50
2019-05-05T01:14:55.751Z,1.59
2019-05-05T01:15:55.768Z,1.42
2019-05-05T01:16:55.726Z,1.54
2019-05-05T01:17:55.737Z,1.50
2019-05-05T01:18:55.709Z,1.45
2019-05-05T01:20:03.478Z,1.42
2019-05-05T01:20:56.708Z,1.45
2019-05-05T01:21:55.676Z,1.48
2019-05-05T01:22:55.660Z,1.41
2019-05-05T01:23:55.673Z,1.33
2019-05-05T01:24:55.652Z,1.37
2019-05-05T01:25:55.650Z,1.37
2019-05-05T01:26:55.616Z,1.23
2019-05-05T01:27:55.609Z,1.24
2019-05-05T01:28:56.271Z,1.22
2019-05-05T01:29:55.582Z,1.16
2019-05-05T01:30:55.597Z,1.08
2019-05-05T01:31:55.570Z,1.12
2019-05-05T01:32:56.080Z,1.02
2019-05-05T01:33:55.542Z,1.05
2019-05-05T01:34:55.557Z,1.05
2019-05-05T01:35:55.515Z,1.04
2019-05-05T01:36:55.506Z,1.02
2019-05-05T01:37:55.496Z,1.00
2019-05-05T01:38:55.527Z,1.00
2019-05-05T01:39:55.508Z,1.02
2019-05-05T01:40:55.459Z,0.98
2019-05-05T01:41:55.486Z,0.98
2019-05-05T01:42:55.436Z,1.02
2019-05-05T01:43:55.424Z,0.96
2019-05-05T01:44:55.429Z,0.97
2019-05-05T01:45:55.429Z,0.88
2019-05-05T01:46:55.392Z,1.02
2019-05-05T01:47:55.382Z,0.96
2019-05-05T01:48:55.374Z,0.87
2019-05-05T01:49:55.370Z,0.93
2019-05-05T01:50:55.372Z,0.84
2019-05-05T01:51:55.485Z,0.80
2019-05-05T01:52:55.629Z,0.76
2019-05-05T01:53:55.339Z,0.75
2019-05-05T01:54:55.304Z,0.72
2019-05-05T01:55:55.299Z,0.76
2019-05-05T01:56:55.653Z,0.76
2019-05-05T01:57:55.286Z,0.76
2019-05-05T01:58:55.258Z,0.73
2019-05-05T01:59:55.423Z,0.75
2019-05-05T02:00:55.237Z,0.76
2019-05-05T02:01:55.298Z,0.76
2019-05-05T02:02:55.456Z,0.75
2019-05-05T02:03:55.217Z,0.76
2019-05-05T02:04:55.522Z,0.72
2019-05-05T02:05:55.181Z,0.72
2019-05-05T02:06:55.211Z,0.75
2019-05-05T02:07:55.408Z,0.68
2019-05-05T02:08:55.172Z,0.66
2019-05-05T02:09:55.534Z,0.69
2019-05-05T02:10:55.127Z,0.66
2019-05-05T02:11:55.116Z,0.62
2019-05-05T02:12:55.249Z,0.57
2019-05-05T02:13:55.113Z,0.58
2019-05-05T02:14:55.329Z,0.60
2019-05-05T02:15:55.314Z,0.57
2019-05-05T02:16:55.061Z,0.57
2019-05-05T02:17:55.214Z,0.53
2019-05-05T02:18:55.039Z,0.57
2019-05-05T02:19:55.162Z,0.51
2019-05-05T02:20:55.014Z,0.51
2019-05-05T02:21:55.103Z,0.50
2019-05-05T02:22:55.256Z,0.46
2019-05-05T02:23:55.012Z,0.44
2019-05-05T02:24:55.296Z,0.47
2019-05-05T02:25:55.382Z,0.55
2019-05-05T02:26:54.946Z,0.53
2019-05-05T02:27:54.939Z,0.50
2019-05-05T02:28:54.943Z,0.46
2019-05-05T02:29:54.992Z,0.47
2019-05-05T02:30:55.205Z,0.50
2019-05-05T02:31:55.307Z,0.39
2019-05-05T02:32:55.516Z,0.46
2019-05-05T02:33:56.821Z,0.44
2019-05-05T02:34:56.322Z,0.39
2019-05-05T02:35:55.799Z,0.42
2019-05-05T02:36:56.475Z,0.44
2019-05-05T02:37:55.786Z,0.46
2019-05-05T02:38:56.745Z,0.41
2019-05-05T02:40:02.009Z,0.47
2019-05-05T02:40:55.805Z,0.41
2019-05-05T02:41:54.918Z,0.42
2019-05-05T02:42:55.071Z,0.42
2019-05-05T02:43:55.741Z,0.42
2019-05-05T02:44:54.749Z,0.32
2019-05-05T02:45:55.304Z,0.32
2019-05-05T02:46:55.234Z,0.49
2019-05-05T02:47:55.129Z,0.35
2019-05-05T02:48:55.222Z,0.23
2019-05-05T02:49:55.034Z,0.26
2019-05-05T02:51:00.142Z,0.29
2019-05-05T02:51:55.700Z,0.24
2019-05-05T02:52:54.658Z,0.17
2019-05-05T02:53:54.649Z,0.24
2019-05-05T02:54:54.636Z,0.21
2019-05-05T02:55:54.626Z,0.14
2019-05-05T02:56:54.638Z,0.23
2019-05-05T02:57:54.608Z,0.10
2019-05-05T02:58:54.591Z,0.07
2019-05-05T02:59:54.579Z,0.13
2019-05-05T03:00:54.569Z,0.11
2019-05-05T03:01:54.584Z,0.08
2019-05-05T03:02:54.572Z,0.03
2019-05-05T03:03:54.570Z,0.10
2019-05-05T03:04:54.526Z,0.08
2019-05-05T03:05:54.513Z,0.11
2019-05-05T03:06:54.503Z,0.02
2019-05-05T03:07:54.491Z,0.03
2019-05-05T03:08:54.503Z,0.04
2019-05-05T03:09:54.608Z,0.08
2019-05-05T03:10:54.457Z,0.10
2019-05-05T03:11:54.446Z,0.08
2019-05-05T03:12:54.514Z,0.10
2019-05-05T03:13:54.425Z,0.11
2019-05-05T03:14:54.418Z,0.04
2019-05-05T03:15:55.098Z,0.04
2019-05-05T03:16:54.392Z,0.07
2019-05-05T03:17:54.381Z,-0.03
2019-05-05T03:18:54.584Z,-0.05
2019-05-05T03:19:54.358Z,-0.05
2019-05-05T03:21:03.849Z,-0.07
2019-05-05T03:21:55.364Z,-0.08
2019-05-05T03:22:54.324Z,-0.05
2019-05-05T03:23:54.871Z,-0.07
2019-05-05T03:24:54.303Z,-0.03
2019-05-05T03:25:54.626Z,-0.05
2019-05-05T03:26:54.282Z,-0.08
2019-05-05T03:27:54.275Z,-0.03
2019-05-05T03:28:54.482Z,-0.11
2019-05-05T03:29:54.255Z,-0.08
2019-05-05T03:30:55.819Z,-0.14
2019-05-05T03:31:56.325Z,-0.10
2019-05-05T03:32:55.971Z,-0.08
2019-05-05T03:33:55.090Z,-0.19
2019-05-05T03:34:54.234Z,-0.15
2019-05-05T03:35:54.277Z,-0.19
2019-05-05T03:36:54.174Z,-0.22
2019-05-05T03:37:54.549Z,-0.11
2019-05-05T03:38:54.147Z,-0.14
2019-05-05T03:39:54.152Z,-0.11
2019-05-05T03:40:54.263Z,-0.11
2019-05-05T03:41:54.368Z,-0.11
2019-05-05T03:42:54.127Z,-0.10
2019-05-05T03:43:56.915Z,-0.08
2019-05-05T03:44:54.558Z,-0.10
2019-05-05T03:45:54.071Z,-0.08
2019-05-05T03:46:54.431Z,-0.05
2019-05-05T03:47:54.218Z,-0.07
2019-05-05T03:48:54.247Z,0.00
2019-05-05T03:49:54.029Z,0.07
2019-05-05T03:50:54.163Z,-0.05
2019-05-05T03:51:54.385Z,-0.01
2019-05-05T03:52:54.497Z,0.02
2019-05-05T03:53:53.982Z,0.02
2019-05-05T03:54:54.237Z,-0.01
2019-05-05T03:55:54.560Z,-0.01
2019-05-05T03:56:54.539Z,0.00
2019-05-05T03:57:53.937Z,0.03
2019-05-05T03:58:54.332Z,-0.03
2019-05-05T03:59:54.719Z,-0.03
2019-05-05T04:00:54.895Z,-0.05
2019-05-05T04:01:54.550Z,-0.05
2019-05-05T04:02:53.956Z,-0.04
2019-05-05T04:03:54.145Z,0.00
2019-05-05T04:04:55.021Z,-0.07
2019-05-05T04:05:53.881Z,-0.03
2019-05-05T04:06:54.122Z,-0.05
2019-05-05T04:07:54.551Z,0.04
2019-05-05T04:08:53.862Z,-0.03
2019-05-05T04:09:54.352Z,0.02
2019-05-05T04:10:54.617Z,-0.01
2019-05-05T04:11:54.090Z,0.02
2019-05-05T04:12:54.002Z,-0.05
2019-05-05T04:13:54.235Z,0.00
2019-05-05T04:14:54.556Z,0.00
2019-05-05T04:15:53.770Z,0.00
2019-05-05T04:16:54.077Z,0.00
2019-05-05T04:17:53.768Z,0.03
2019-05-05T04:18:54.312Z,0.00
2019-05-05T04:19:54.263Z,0.03
2019-05-05T04:20:53.703Z,0.02
2019-05-05T04:21:53.749Z,0.00
2019-05-05T04:22:55.220Z,0.02
2019-05-05T04:23:53.651Z,0.03
2019-05-05T04:24:54.236Z,0.04
2019-05-05T04:25:54.419Z,0.02
2019-05-05T04:26:54.584Z,0.03
2019-05-05T04:27:53.904Z,0.03
2019-05-05T04:28:54.147Z,0.08
2019-05-05T04:29:54.504Z,0.10
2019-05-05T04:30:53.760Z,0.07
2019-05-05T04:31:54.118Z,0.07
2019-05-05T04:32:54.583Z,0.11
2019-05-05T04:33:53.904Z,0.18
2019-05-05T04:34:54.308Z,0.28
2019-05-05T04:35:54.540Z,0.23
2019-05-05T04:36:54.648Z,0.23
2019-05-05T04:37:54.239Z,0.35
2019-05-05T04:38:54.601Z,0.33
2019-05-05T04:39:53.854Z,0.35
2019-05-05T04:40:54.198Z,0.32
2019-05-05T04:41:54.552Z,0.44
2019-05-05T04:42:54.642Z,0.44
2019-05-05T04:43:54.688Z,0.38
2019-05-05T04:44:53.913Z,0.44
2019-05-05T04:45:54.122Z,0.51
2019-05-05T04:46:54.572Z,0.50
2019-05-05T04:47:54.005Z,0.51
2019-05-05T04:48:54.441Z,0.57
2019-05-05T04:49:53.879Z,0.53
2019-05-05T04:50:54.384Z,0.62
2019-05-05T04:51:53.930Z,0.70
2019-05-05T04:52:54.051Z,0.55
2019-05-05T04:53:54.311Z,0.62
2019-05-05T04:54:55.467Z,0.72
2019-05-05T04:55:53.650Z,0.73
2019-05-05T04:56:53.970Z,0.76
2019-05-05T04:57:54.033Z,0.90
2019-05-05T04:58:54.442Z,0.80
2019-05-05T04:59:54.044Z,0.79
2019-05-05T05:00:54.702Z,0.88
2019-05-05T05:01:54.632Z,0.97
2019-05-05T05:02:53.950Z,1.04
2019-05-05T05:03:54.324Z,1.18
2019-05-05T05:04:53.593Z,1.23
2019-05-05T05:05:53.725Z,1.20
2019-05-05T05:06:54.246Z,1.29
2019-05-05T05:07:54.622Z,1.33
2019-05-05T05:08:53.672Z,1.51
2019-05-05T05:09:54.042Z,1.51
2019-05-05T05:10:54.316Z,1.58
2019-05-05T05:11:54.739Z,1.62
2019-05-05T05:12:54.003Z,1.69
2019-05-05T05:13:54.477Z,1.83
2019-05-05T05:14:54.665Z,1.77
2019-05-05T05:15:53.956Z,1.99
2019-05-05T05:16:54.145Z,2.10
2019-05-05T05:17:53.555Z,2.12
2019-05-05T05:18:53.771Z,2.31
2019-05-05T05:19:54.196Z,2.56
2019-05-05T05:20:54.903Z,2.81
2019-05-05T05:22:01.622Z,2.81
2019-05-05T05:22:54.484Z,2.95
2019-05-05T05:23:53.605Z,3.06
2019-05-05T05:24:54.108Z,3.15
2019-05-05T05:25:54.399Z,3.24
2019-05-05T05:26:52.951Z,3.33
2019-05-05T05:27:53.619Z,3.47
2019-05-05T05:28:53.852Z,3.57
2019-05-05T05:29:54.404Z,3.45
2019-05-05T05:30:54.576Z,3.52
2019-05-05T05:31:53.543Z,3.58
2019-05-05T05:32:53.878Z,3.57
2019-05-05T05:33:54.807Z,3.47
2019-05-05T05:34:54.238Z,3.52
2019-05-05T05:35:54.614Z,3.57
2019-05-05T05:36:53.631Z,3.66
2019-05-05T05:37:54.006Z,3.80
2019-05-05T05:38:54.165Z,4.20
2019-05-05T05:39:54.539Z,4.55
2019-05-05T05:40:53.588Z,4.92
2019-05-05T05:41:54.121Z,5.09
2019-05-05T05:42:54.211Z,5.28
2019-05-05T05:43:54.160Z,5.40
2019-05-05T05:44:53.526Z,5.71
2019-05-05T05:45:54.208Z,5.85
2019-05-05T05:46:54.571Z,5.94
2019-05-05T05:47:53.693Z,6.09
2019-05-05T05:48:53.851Z,6.14
2019-05-05T05:49:54.425Z,5.96
2019-05-05T05:50:53.704Z,5.79
2019-05-05T05:51:53.833Z,5.97
2019-05-05T05:52:54.071Z,5.97
2019-05-05T05:53:54.373Z,5.93
2019-05-05T05:54:53.529Z,5.85
2019-05-05T05:55:53.787Z,5.93
2019-05-05T05:56:53.825Z,6.00
2019-05-05T05:57:54.199Z,6.06
2019-05-05T05:58:54.261Z,6.21
2019-05-05T05:59:54.748Z,6.46
2019-05-05T06:00:53.969Z,6.67
2019-05-05T06:02:06.081Z,6.89
2019-05-05T06:02:54.597Z,7.03
2019-05-05T06:03:53.601Z,6.89
2019-05-05T06:04:53.947Z,7.09
2019-05-05T06:05:54.000Z,7.40
2019-05-05T06:06:54.375Z,7.40
2019-05-05T06:07:54.447Z,7.48
2019-05-05T06:08:54.284Z,7.68
2019-05-05T06:09:54.166Z,7.71
2019-05-05T06:10:54.529Z,7.61
2019-05-05T06:11:54.198Z,7.97
2019-05-05T06:12:54.147Z,8.28
2019-05-05T06:13:54.395Z,8.40
2019-05-05T06:14:53.702Z,8.30
2019-05-05T06:15:53.551Z,8.23
2019-05-05T06:16:53.976Z,8.07
2019-05-05T06:17:54.016Z,7.95
2019-05-05T06:18:54.223Z,7.98
2019-05-05T06:19:53.443Z,7.74
2019-05-05T06:20:53.776Z,7.61
2019-05-05T06:21:54.146Z,7.40
2019-05-05T06:22:53.541Z,7.42
2019-05-05T06:23:53.798Z,7.48
2019-05-05T06:24:54.135Z,7.68
2019-05-05T06:25:54.859Z,7.72
2019-05-05T06:26:54.592Z,7.97
2019-05-05T06:27:54.027Z,7.93
2019-05-05T06:28:54.084Z,8.00
2019-05-05T06:29:54.232Z,8.18
2019-05-05T06:30:54.477Z,8.04
2019-05-05T06:31:53.771Z,7.72
2019-05-05T06:32:54.358Z,7.67
2019-05-05T06:33:54.203Z,7.61
2019-05-05T06:34:53.438Z,7.61
2019-05-05T06:35:53.557Z,7.64
2019-05-05T06:36:53.728Z,7.60
2019-05-05T06:37:54.313Z,7.82
2019-05-05T06:38:54.039Z,8.01
2019-05-05T06:39:54.302Z,8.16
2019-05-05T06:40:53.713Z,8.30
2019-05-05T06:41:53.860Z,8.48
2019-05-05T06:42:53.895Z,8.62
2019-05-05T06:43:54.223Z,8.50
2019-05-05T06:44:53.510Z,8.48
2019-05-05T06:45:53.526Z,8.44
2019-05-05T06:46:53.754Z,8.38
2019-05-05T06:47:53.744Z,8.36
2019-05-05T06:48:53.878Z,7.95
2019-05-05T06:49:54.085Z,7.61
2019-05-05T06:50:52.017Z,7.58
2019-05-05T06:51:52.007Z,7.50
2019-05-05T06:52:53.667Z,7.61
2019-05-05T06:53:53.873Z,7.82
2019-05-05T06:54:54.141Z,7.98
2019-05-05T06:55:54.146Z,7.97
2019-05-05T06:56:53.834Z,8.11
2019-05-05T06:57:53.775Z,8.15
2019-05-05T06:58:53.890Z,8.30
2019-05-05T06:59:51.943Z,8.30
2019-05-05T07:00:51.906Z,8.50
2019-05-05T07:01:53.572Z,8.44
2019-05-05T07:02:53.930Z,8.29
2019-05-05T07:03:51.859Z,8.16
2019-05-05T07:04:51.883Z,8.19
2019-05-05T07:05:53.834Z,8.15
2019-05-05T07:06:56.316Z,8.18
2019-05-05T07:07:53.749Z,8.28
2019-05-05T07:08:51.805Z,8.74
2019-05-05T07:09:54.142Z,8.74
2019-05-05T07:10:51.800Z,8.53
2019-05-05T07:11:53.944Z,8.48
2019-05-05T07:12:51.785Z,8.47
2019-05-05T07:13:53.689Z,8.16
2019-05-05T07:14:53.657Z,8.08
2019-05-05T07:15:51.729Z,7.82
2019-05-05T07:16:51.713Z,7.69
2019-05-05T07:17:53.582Z,7.52
2019-05-05T07:18:53.786Z,7.43
2019-05-05T07:19:54.212Z,7.12
2019-05-05T07:20:51.677Z,7.03
2019-05-05T07:21:53.625Z,6.95
2019-05-05T07:23:01.427Z,6.95
2019-05-05T07:23:53.851Z,6.88
2019-05-05T07:24:51.627Z,6.56
2019-05-05T07:25:51.627Z,6.41
2019-05-05T07:26:51.628Z,6.30
2019-05-05T07:27:51.617Z,6.17
2019-05-05T07:28:51.614Z,6.18
2019-05-05T07:29:51.569Z,6.12
2019-05-05T07:30:51.621Z,6.06
2019-05-05T07:31:51.553Z,5.82
2019-05-05T07:32:53.606Z,5.85
2019-05-05T07:33:51.549Z,6.01
2019-05-05T07:34:51.517Z,6.12
2019-05-05T07:35:56.776Z,6.34
2019-05-05T07:36:54.642Z,6.40
2019-05-05T07:37:53.741Z,6.48
2019-05-05T07:38:51.548Z,6.49
2019-05-05T07:39:51.456Z,6.49
2019-05-05T07:40:51.448Z,6.41
2019-05-05T07:41:51.445Z,6.54
2019-05-05T07:42:51.426Z,6.62
2019-05-05T07:43:51.438Z,6.74
2019-05-05T07:44:51.430Z,6.76
2019-05-05T07:45:51.392Z,6.81
2019-05-05T07:46:51.383Z,6.94
2019-05-05T07:47:51.366Z,7.06
2019-05-05T07:48:51.355Z,7.31
2019-05-05T07:49:53.424Z,7.43
2019-05-05T07:50:59.815Z,7.48
2019-05-05T07:51:54.481Z,7.50
2019-05-05T07:52:51.313Z,7.57
2019-05-05T07:53:51.328Z,7.61
2019-05-05T07:54:51.356Z,7.55
2019-05-05T07:55:51.277Z,7.64
2019-05-05T07:56:51.262Z,7.52
2019-05-05T07:57:51.310Z,7.31
2019-05-05T07:58:51.253Z,7.25
2019-05-05T07:59:51.246Z,7.30
2019-05-05T08:00:51.246Z,7.43
2019-05-05T08:01:51.207Z,7.57
2019-05-05T08:02:51.326Z,7.61
2019-05-05T08:03:51.201Z,7.63
2019-05-05T08:04:51.177Z,8.01
2019-05-05T08:05:51.165Z,8.58
2019-05-05T08:06:51.181Z,9.47
2019-05-05T08:07:51.139Z,9.54
2019-05-05T08:08:51.150Z,9.48
2019-05-05T08:09:51.165Z,9.39
2019-05-05T08:10:51.104Z,9.32
2019-05-05T08:11:51.101Z,9.04
2019-05-05T08:12:51.094Z,8.91
2019-05-05T08:13:51.096Z,8.94
2019-05-05T08:14:51.065Z,9.13
2019-05-05T08:15:59.144Z,9.21
2019-05-05T08:16:53.589Z,9.05
2019-05-05T08:17:51.030Z,9.10
2019-05-05T08:18:51.049Z,9.83
2019-05-05T08:19:51.025Z,10.01
2019-05-05T08:20:50.992Z,10.38
2019-05-05T08:21:51.063Z,10.97
2019-05-05T08:22:51.005Z,11.24
2019-05-05T08:23:50.976Z,11.54
2019-05-05T08:24:50.981Z,11.29
2019-05-05T08:25:50.936Z,11.09
2019-05-05T08:26:50.990Z,10.88
2019-05-05T08:27:50.926Z,10.63
2019-05-05T08:28:50.921Z,10.22
2019-05-05T08:29:50.905Z,9.48
2019-05-05T08:30:50.907Z,9.21
2019-05-05T08:31:50.875Z,8.92
2019-05-05T08:32:50.856Z,8.58
2019-05-05T08:33:50.846Z,8.61
2019-05-05T08:34:59.865Z,8.65
2019-05-05T08:35:53.997Z,8.55
2019-05-05T08:36:50.838Z,8.52
2019-05-05T08:37:50.808Z,8.50
2019-05-05T08:38:50.810Z,8.48
2019-05-05T08:39:50.829Z,8.56
2019-05-05T08:40:50.767Z,8.62
2019-05-05T08:41:50.786Z,8.95
2019-05-05T08:42:50.750Z,9.46
2019-05-05T08:43:50.783Z,9.42
2019-05-05T08:44:50.771Z,9.54
2019-05-05T08:45:50.736Z,9.61
2019-05-05T08:46:50.703Z,9.56
2019-05-05T08:47:50.708Z,9.58
2019-05-05T08:48:50.712Z,9.50
2019-05-05T08:49:50.681Z,9.99
2019-05-05T08:50:50.678Z,10.20
2019-05-05T08:51:50.653Z,10.64
2019-05-05T08:52:50.630Z,11.17
2019-05-05T08:53:50.621Z,11.32
2019-05-05T08:54:50.618Z,11.28
2019-05-05T08:55:50.646Z,11.04
2019-05-05T08:56:50.585Z,11.25
2019-05-05T08:57:50.578Z,11.49
2019-05-05T08:58:50.565Z,12.04
2019-05-05T08:59:50.560Z,11.73
2019-05-05T09:00:50.578Z,11.61
2019-05-05T09:01:50.563Z,11.86
2019-05-05T09:02:50.523Z,11.82
2019-05-05T09:03:50.509Z,11.85
2019-05-05T09:04:50.520Z,12.10
2019-05-05T09:05:50.517Z,12.16
2019-05-05T09:06:50.476Z,11.83
2019-05-05T09:07:50.487Z,11.82
2019-05-05T09:08:50.456Z,11.70
2019-05-05T09:09:50.441Z,11.91
2019-05-05T09:10:52.283Z,11.83
2019-05-05T09:11:50.462Z,11.61
2019-05-05T09:12:50.406Z,11.85
2019-05-05T09:13:50.416Z,11.79
2019-05-05T09:14:50.382Z,11.78
2019-05-05T09:15:50.402Z,11.57
2019-05-05T09:16:50.380Z,11.83
2019-05-05T09:17:50.350Z,11.94
2019-05-05T09:18:50.359Z,11.42
2019-05-05T09:19:50.358Z,11.73
2019-05-05T09:20:50.317Z,12.14
2019-05-05T09:21:50.305Z,11.82
2019-05-05T09:22:50.296Z,11.14
2019-05-05T09:23:59.965Z,10.82
2019-05-05T09:24:51.294Z,10.81
2019-05-05T09:25:50.258Z,10.55
2019-05-05T09:26:50.247Z,10.36
2019-05-05T09:27:50.236Z,10.32
2019-05-05T09:28:50.226Z,10.45
2019-05-05T09:29:50.243Z,10.60
2019-05-05T09:30:50.264Z,10.56
2019-05-05T09:31:50.202Z,10.52
2019-05-05T09:32:50.181Z,10.45
2019-05-05T09:33:50.191Z,10.23
2019-05-05T09:34:50.190Z,9.99
2019-05-05T09:35:50.145Z,9.96
2019-05-05T09:36:50.137Z,9.76
2019-05-05T09:37:50.200Z,9.86
2019-05-05T09:38:50.138Z,9.83
2019-05-05T09:39:50.101Z,9.89
2019-05-05T09:40:50.153Z,9.96
2019-05-05T09:41:50.084Z,9.99
2019-05-05T09:42:50.069Z,9.81
2019-05-05T09:43:50.087Z,9.54
2019-05-05T09:44:50.051Z,9.48
2019-05-05T09:45:50.061Z,10.27
2019-05-05T09:46:50.022Z,11.19
2019-05-05T09:47:50.039Z,11.40
2019-05-05T09:48:50.001Z,11.65
2019-05-05T09:49:49.994Z,11.57
2019-05-05T09:50:49.975Z,11.04
2019-05-05T09:51:49.964Z,10.52
2019-05-05T09:52:49.989Z,10.25
2019-05-05T09:53:49.942Z,10.09
2019-05-05T09:54:49.935Z,9.93
2019-05-05T09:55:49.952Z,9.68
2019-05-05T09:56:49.933Z,9.53
2019-05-05T09:57:49.897Z,9.35
2019-05-05T09:58:49.886Z,9.51
2019-05-05T09:59:49.901Z,9.87
2019-05-05T10:00:49.867Z,10.52
2019-05-05T10:01:49.860Z,10.82
2019-05-05T10:02:49.870Z,11.35
2019-05-05T10:03:49.847Z,11.73
2019-05-05T10:04:49.819Z,12.09
2019-05-05T10:05:49.807Z,12.53
2019-05-05T10:06:49.799Z,13.01
2019-05-05T10:07:49.818Z,12.64
2019-05-05T10:08:49.774Z,12.12
2019-05-05T10:09:49.785Z,11.60
2019-05-05T10:10:49.762Z,11.55
2019-05-05T10:11:49.739Z,11.25
2019-05-05T10:12:52.273Z,10.67
2019-05-05T10:13:49.715Z,10.67
2019-05-05T10:14:49.706Z,10.30
2019-05-05T10:15:49.695Z,10.02
2019-05-05T10:16:49.725Z,9.94
2019-05-05T10:17:49.703Z,10.01
2019-05-05T10:18:49.675Z,9.81
2019-05-05T10:19:49.653Z,9.79
2019-05-05T10:20:49.649Z,9.58
2019-05-05T10:21:49.627Z,9.48
2019-05-05T10:22:49.635Z,9.50
2019-05-05T10:23:49.630Z,9.54
2019-05-05T10:24:49.596Z,9.36
2019-05-05T10:25:49.603Z,9.33
2019-05-05T10:26:49.602Z,9.31
2019-05-05T10:27:49.563Z,9.15
2019-05-05T10:28:49.547Z,9.11
2019-05-05T10:29:49.541Z,9.31
2019-05-05T10:30:49.551Z,9.57
2019-05-05T10:31:49.531Z,9.93
2019-05-05T10:32:49.504Z,10.47
2019-05-05T10:33:49.491Z,10.81
2019-05-05T10:34:49.502Z,11.25
2019-05-05T10:35:49.493Z,11.70
2019-05-05T10:36:49.468Z,12.05
2019-05-05T10:37:49.452Z,12.28
2019-05-05T10:38:49.468Z,12.65
2019-05-05T10:39:49.441Z,12.77
2019-05-05T10:40:49.436Z,12.75
2019-05-05T10:41:49.402Z,12.89
2019-05-05T10:42:49.391Z,12.75
2019-05-05T10:43:49.377Z,12.31
2019-05-05T10:44:49.397Z,12.23
2019-05-05T10:45:49.354Z,12.31
2019-05-05T10:46:49.349Z,11.94
2019-05-05T10:47:49.363Z,11.80
2019-05-05T10:48:49.342Z,12.12
2019-05-05T10:49:49.309Z,12.39
2019-05-05T10:50:49.298Z,12.62
2019-05-05T10:51:49.311Z,12.92
2019-05-05T10:52:49.277Z,13.14
2019-05-05T10:53:49.290Z,13.26
2019-05-05T10:54:49.253Z,13.42
2019-05-05T10:55:49.269Z,12.70
2019-05-05T10:56:49.249Z,12.78
2019-05-05T10:57:49.243Z,12.50
2019-05-05T10:58:49.228Z,12.42
2019-05-05T10:59:49.198Z,12.47
2019-05-05T11:00:49.204Z,12.78
2019-05-05T11:01:49.174Z,13.04
2019-05-05T11:02:49.187Z,13.17
2019-05-05T11:03:49.171Z,13.48
2019-05-05T11:04:49.140Z,13.46
2019-05-05T11:05:49.138Z,13.75
2019-05-05T11:06:49.119Z,14.03
2019-05-05T11:07:49.129Z,14.03
2019-05-05T11:08:49.114Z,14.02
2019-05-05T11:09:49.087Z,14.33
2019-05-05T11:10:49.072Z,13.95
2019-05-05T11:11:49.095Z,13.48
2019-05-05T11:12:49.098Z,12.86
2019-05-05T11:13:49.054Z,12.72
2019-05-05T11:14:49.028Z,12.10
2019-05-05T11:15:49.022Z,11.76
2019-05-05T11:16:49.088Z,11.39
2019-05-05T11:17:48.999Z,11.15
2019-05-05T11:18:48.992Z,10.92
2019-05-05T11:19:50.278Z,10.76
2019-05-05T11:20:48.964Z,10.60
2019-05-05T11:21:48.964Z,10.71
2019-05-05T11:22:48.951Z,10.78
2019-05-05T11:23:48.956Z,10.74
2019-05-05T11:24:58.370Z,10.92
2019-05-05T11:25:49.904Z,11.03
2019-05-05T11:26:48.917Z,11.00
2019-05-05T11:27:48.896Z,11.06
2019-05-05T11:28:48.868Z,11.14
2019-05-05T11:29:48.860Z,11.14
2019-05-05T11:30:48.852Z,10.97
2019-05-05T11:31:48.872Z,10.84
2019-05-05T11:32:48.824Z,10.82
2019-05-05T11:33:48.822Z,10.91
2019-05-05T11:34:48.800Z,11.02
2019-05-05T11:35:48.801Z,10.97
2019-05-05T11:36:48.812Z,10.91
2019-05-05T11:37:48.766Z,10.94
2019-05-05T11:38:48.754Z,10.81
2019-05-05T11:39:48.746Z,10.97
2019-05-05T11:40:48.751Z,10.94
2019-05-05T11:41:48.739Z,11.42
2019-05-05T11:42:48.710Z,11.32
2019-05-05T11:43:48.724Z,11.46
2019-05-05T11:44:48.700Z,11.39
2019-05-05T11:45:48.676Z,11.39
2019-05-05T11:46:48.686Z,11.51
2019-05-05T11:47:48.682Z,11.70
2019-05-05T11:48:48.646Z,11.49
2019-05-05T11:49:48.653Z,11.33
2019-05-05T11:50:48.625Z,11.39
2019-05-05T11:51:48.606Z,11.60
2019-05-05T11:52:48.598Z,11.69
2019-05-05T11:53:48.650Z,11.72
2019-05-05T11:54:48.609Z,12.04
2019-05-05T11:55:48.566Z,12.41
2019-05-05T11:56:48.554Z,12.62
2019-05-05T11:57:48.540Z,12.54
2019-05-05T11:58:48.529Z,12.82
2019-05-05T11:59:48.556Z,12.93
2019-05-05T12:00:48.506Z,12.78
2019-05-05T12:01:48.511Z,12.49
2019-05-05T12:02:48.483Z,12.38
2019-05-05T12:03:48.508Z,12.20
2019-05-05T12:04:48.478Z,12.24
2019-05-05T12:05:48.451Z,12.04
2019-05-05T12:06:48.442Z,11.83
2019-05-05T12:07:48.517Z,11.70
2019-05-05T12:08:48.428Z,11.90
2019-05-05T12:09:48.405Z,11.90
2019-05-05T12:10:48.419Z,12.04
2019-05-05T12:11:48.385Z,12.13
2019-05-05T12:12:48.371Z,12.13
2019-05-05T12:13:48.362Z,12.10
2019-05-05T12:14:48.351Z,12.17
2019-05-05T12:15:48.366Z,12.05
2019-05-05T12:16:48.338Z,12.01
2019-05-05T12:17:48.362Z,11.95
2019-05-05T12:18:48.304Z,12.01
2019-05-05T12:19:48.643Z,11.83
2019-05-05T12:20:48.308Z,11.67
2019-05-05T12:21:48.287Z,11.85
2019-05-05T12:22:48.257Z,12.01
2019-05-05T12:23:48.250Z,12.24
2019-05-05T12:24:48.235Z,12.28
2019-05-05T12:25:48.282Z,12.10
2019-05-05T12:26:48.216Z,12.19
2019-05-05T12:27:48.249Z,12.24
2019-05-05T12:28:48.192Z,12.13
2019-05-05T12:29:48.183Z,12.07
2019-05-05T12:30:48.196Z,12.12
2019-05-05T12:31:48.174Z,11.98
2019-05-05T12:32:48.145Z,11.98
2019-05-05T12:33:48.135Z,12.04
2019-05-05T12:34:48.128Z,11.94
2019-05-05T12:35:48.142Z,11.86
2019-05-05T12:36:48.133Z,12.07
2019-05-05T12:37:48.087Z,11.99
2019-05-05T12:38:48.209Z,11.96
2019-05-05T12:39:48.097Z,12.05
2019-05-05T12:40:48.061Z,12.04
2019-05-05T12:41:48.042Z,12.10
2019-05-05T12:42:48.032Z,12.12
2019-05-05T12:43:48.052Z,12.02
2019-05-05T12:44:48.018Z,12.01
2019-05-05T12:45:48.003Z,12.14
2019-05-05T12:46:47.989Z,12.09
2019-05-05T12:47:47.998Z,12.10
2019-05-05T12:48:48.040Z,12.01
2019-05-05T12:49:47.977Z,12.05
2019-05-05T12:50:47.939Z,12.01
2019-05-05T12:51:47.942Z,12.12
2019-05-05T12:52:47.939Z,12.07
2019-05-05T12:53:47.915Z,12.07
2019-05-05T12:54:47.923Z,12.05
2019-05-05T12:55:47.883Z,11.95
2019-05-05T12:56:47.918Z,11.91
2019-05-05T12:57:47.865Z,12.09
2019-05-05T12:58:47.850Z,12.29
2019-05-05T12:59:47.902Z,12.50
2019-05-05T13:00:47.831Z,12.59
2019-05-05T13:01:47.819Z,12.60
2019-05-05T13:02:47.832Z,12.72
2019-05-05T13:03:47.798Z,12.56
2019-05-05T13:04:47.838Z,12.54
2019-05-05T13:05:47.777Z,12.71
2019-05-05T13:06:47.758Z,12.64
2019-05-05T13:07:47.746Z,12.47
2019-05-05T13:08:47.738Z,12.54
2019-05-05T13:09:47.770Z,12.52